Terminal Aerodrome Forecast
Issued by NWS

Home | Current Version | Previous Version | Graphics & Text | Print | Product List | Glossary On
Versions: 1 2 3 4 5 6 7 8 9 10 11 12 13 14 15 16 17 18 19 20 21 22 23 24 25 26 27 28
000
FTUS43 KLOT 011120
TAFDPA
TAF
KDPA 011120Z 0112/0212 03011KT 2SM -DZ BR OVC003
      TEMPO 0112/0114 1SM BR VV002
     FM011400 04012KT 3SM BR OVC005
     FM011700 05012KT 5SM BR OVC008
     FM012100 04012G16KT 4SM -SHRA BR OVC010
      TEMPO 0123/0203 3SM RA BR OVC006
     FM020500 03011KT 5SM BR OVC005
     FM021000 02009KT P6SM FEW005 SCT012=

USA.gov is the U.S. government's official web portal to all federal, state and local government web resources and services.